createdAt,value
2018-03-06T00:02:20.742Z,97628.08
2018-03-06T00:04:48.451Z,97628.91
2018-03-06T00:07:16.256Z,97637.11
2018-03-06T00:09:43.902Z,97639.12
2018-03-06T00:12:11.501Z,97633.67
2018-03-06T00:14:39.176Z,97633.18
2018-03-06T00:17:06.888Z,97631.37
2018-03-06T00:19:34.477Z,97620.05
2018-03-06T00:22:02.139Z,97626.89
2018-03-06T00:24:29.744Z,97619.45
2018-03-06T00:26:57.441Z,97613.97
2018-03-06T00:29:25.114Z,97614.31
2018-03-06T00:31:52.721Z,97616.23
2018-03-06T00:34:20.336Z,97609.49
2018-03-06T00:36:48.248Z,97608.08
2018-03-06T00:39:15.847Z,97593.22
2018-03-06T00:41:43.450Z,97589.89
2018-03-06T00:44:11.107Z,97585.20
2018-03-06T00:46:38.714Z,97572.42
2018-03-06T00:49:06.317Z,97571.20
2018-03-06T00:51:33.986Z,97562.37
2018-03-06T00:54:01.588Z,97552.25
2018-03-06T00:56:29.610Z,97550.83
2018-03-06T00:58:58.063Z,97545.32
2018-03-06T01:01:25.678Z,97545.22
2018-03-06T01:03:53.294Z,97549.89
2018-03-06T01:06:21.376Z,97543.38
2018-03-06T01:08:48.947Z,97537.07
2018-03-06T01:11:16.552Z,97528.66
2018-03-06T01:13:44.434Z,97523.05
2018-03-06T01:16:12.041Z,97524.09
2018-03-06T01:18:39.635Z,97526.99
2018-03-06T01:21:07.285Z,97532.52
2018-03-06T01:23:34.905Z,97527.59
2018-03-06T01:26:02.492Z,97527.41
2018-03-06T01:28:30.140Z,97534.09
2018-03-06T01:30:57.723Z,97538.92
2018-03-06T01:33:25.315Z,97535.28
2018-03-06T01:35:52.986Z,97529.45
2018-03-06T01:38:20.642Z,97529.61
2018-03-06T01:40:48.232Z,97529.27
2018-03-06T01:43:16.312Z,97519.44
2018-03-06T01:45:43.915Z,97513.69
2018-03-06T01:48:11.558Z,97512.61
2018-03-06T01:50:39.521Z,97512.03
2018-03-06T01:53:07.116Z,97495.06
2018-03-06T01:55:34.754Z,97499.48
2018-03-06T01:58:02.485Z,97502.08
2018-03-06T02:00:30.072Z,97501.51
2018-03-06T02:02:57.694Z,97506.27
2018-03-06T02:05:25.342Z,97500.59
2018-03-06T02:07:52.931Z,97504.42
2018-03-06T02:10:20.521Z,97510.11
2018-03-06T02:12:48.189Z,97512.36
2018-03-06T02:15:15.773Z,97514.13
2018-03-06T02:17:43.367Z,97512.44
2018-03-06T02:20:11.019Z,97505.46
2018-03-06T02:22:38.632Z,97504.36
2018-03-06T02:25:06.256Z,97510.80
2018-03-06T02:27:33.921Z,97510.72
2018-03-06T02:30:01.520Z,97500.42
2018-03-06T02:32:29.121Z,97507.03
2018-03-06T02:34:56.973Z,97506.45
2018-03-06T02:37:24.577Z,97501.95
2018-03-06T02:39:52.171Z,97482.84
2018-03-06T02:42:19.814Z,97492.95
2018-03-06T02:44:48.090Z,97483.75
2018-03-06T02:47:15.675Z,97477.83
2018-03-06T02:49:43.370Z,97481.73
2018-03-06T02:52:10.997Z,97486.98
2018-03-06T02:54:38.761Z,97482.41
2018-03-06T02:57:06.431Z,97472.72
2018-03-06T02:59:34.103Z,97475.99
2018-03-06T03:02:01.696Z,97476.48
2018-03-06T03:04:29.411Z,97468.56
2018-03-06T03:06:56.984Z,97481.14
2018-03-06T03:09:24.638Z,97474.12
2018-03-06T03:11:53.255Z,97477.41
2018-03-06T03:14:20.840Z,97469.97
2018-03-06T03:16:48.464Z,97470.72
2018-03-06T03:19:16.109Z,97471.56
2018-03-06T03:21:43.686Z,97460.96
2018-03-06T03:24:11.423Z,97443.95
2018-03-06T03:26:39.134Z,97442.01
2018-03-06T03:29:06.725Z,97449.52
2018-03-06T03:31:34.334Z,97440.34
2018-03-06T03:34:01.973Z,97435.11
2018-03-06T03:36:29.569Z,97448.88
2018-03-06T03:38:57.176Z,97436.03
2018-03-06T03:41:24.901Z,97426.19
2018-03-06T03:43:52.512Z,97421.92
2018-03-06T03:46:20.173Z,97426.00
2018-03-06T03:48:48.035Z,97425.16
2018-03-06T03:51:15.815Z,97421.66
2018-03-06T03:53:43.398Z,97418.98
2018-03-06T03:56:11.464Z,97422.92
2018-03-06T03:58:39.052Z,97420.09
2018-03-06T04:01:07.107Z,97421.77
2018-03-06T04:03:34.733Z,97413.91
2018-03-06T04:06:02.406Z,97406.97
2018-03-06T04:08:30.051Z,97410.25
2018-03-06T04:10:57.787Z,97416.50
2018-03-06T04:13:25.365Z,97428.44
2018-03-06T04:15:53.784Z,97433.09
2018-03-06T04:18:21.670Z,97424.17
2018-03-06T04:20:49.265Z,97427.68
2018-03-06T04:23:16.871Z,97421.50
2018-03-06T04:25:45.259Z,97419.39
2018-03-06T04:28:12.853Z,97412.41
2018-03-06T04:30:40.448Z,97415.88
2018-03-06T04:33:08.157Z,97420.49
2018-03-06T04:35:36.402Z,97420.56
2018-03-06T04:38:04.001Z,97412.20
2018-03-06T04:40:31.726Z,97407.61
2018-03-06T04:42:59.296Z,97404.88
2018-03-06T04:45:26.884Z,97408.38
2018-03-06T04:47:54.525Z,97409.95
2018-03-06T04:50:22.170Z,97414.63
2018-03-06T04:52:49.757Z,97414.10
2018-03-06T04:55:17.633Z,97420.97
2018-03-06T04:57:45.304Z,97419.45
2018-03-06T05:00:12.889Z,97428.91
2018-03-06T05:02:40.821Z,97419.38
2018-03-06T05:05:09.636Z,97424.07
2018-03-06T05:07:37.217Z,97424.08
2018-03-06T05:10:05.105Z,97427.89
2018-03-06T05:12:32.700Z,97433.77
2018-03-06T05:15:00.286Z,97430.56
2018-03-06T05:17:27.941Z,97427.99
2018-03-06T05:19:55.603Z,97430.81
2018-03-06T05:22:23.199Z,97428.63
2018-03-06T05:24:50.858Z,97434.67
2018-03-06T05:27:18.973Z,97427.98
2018-03-06T05:29:47.839Z,97426.80
2018-03-06T05:32:15.494Z,97421.12
2018-03-06T05:34:43.071Z,97421.80
2018-03-06T05:37:10.730Z,97424.30
2018-03-06T05:39:38.361Z,97420.70
2018-03-06T05:42:05.955Z,97420.13
2018-03-06T05:44:33.553Z,97419.44
2018-03-06T05:47:01.180Z,97419.61
2018-03-06T05:49:28.768Z,97420.10
2018-03-06T05:51:56.366Z,97421.08
2018-03-06T05:54:24.012Z,97424.73
2018-03-06T05:56:51.614Z,97428.84
2018-03-06T05:59:19.278Z,97435.33
2018-03-06T06:01:46.990Z,97436.14
2018-03-06T06:04:14.711Z,97437.63
2018-03-06T06:06:42.988Z,97438.56
2018-03-06T06:09:10.846Z,97426.84
2018-03-06T06:11:38.458Z,97427.00
2018-03-06T06:14:06.981Z,97428.12
2018-03-06T06:16:34.576Z,97432.73
2018-03-06T06:19:02.249Z,97428.07
2018-03-06T06:21:29.887Z,97435.48
2018-03-06T06:23:57.504Z,97423.84
2018-03-06T06:26:25.075Z,97424.67
2018-03-06T06:28:52.638Z,97426.52
2018-03-06T06:31:20.307Z,97433.22
2018-03-06T06:33:47.872Z,97433.86
2018-03-06T06:36:15.510Z,97442.05
2018-03-06T06:38:43.149Z,97443.61
2018-03-06T06:41:10.735Z,97440.16
2018-03-06T06:43:38.338Z,97441.78
2018-03-06T06:46:05.957Z,97446.75
2018-03-06T06:48:33.568Z,97457.53
2018-03-06T06:51:01.207Z,97459.31
2018-03-06T06:53:28.854Z,97461.55
2018-03-06T06:55:56.428Z,97454.99
2018-03-06T06:58:24.030Z,97460.49
2018-03-06T07:00:51.945Z,97461.80
2018-03-06T07:03:19.518Z,97457.05
2018-03-06T07:05:47.161Z,97454.77
2018-03-06T07:08:15.892Z,97457.41
2018-03-06T07:10:43.471Z,97458.89
2018-03-06T07:13:11.111Z,97458.55
2018-03-06T07:15:38.742Z,97456.63
2018-03-06T07:18:06.306Z,97457.05
2018-03-06T07:20:34.652Z,97461.45
2018-03-06T07:23:02.862Z,97462.27
2018-03-06T07:25:30.428Z,97456.40
2018-03-06T07:27:57.984Z,97457.03
2018-03-06T07:30:25.611Z,97462.64
2018-03-06T07:32:53.183Z,97466.27
2018-03-06T07:35:20.757Z,97466.23
2018-03-06T07:37:48.380Z,97468.74
2018-03-06T07:40:15.940Z,97468.95
2018-03-06T07:42:43.500Z,97471.47
2018-03-06T07:45:11.122Z,97475.70
2018-03-06T07:47:38.759Z,97466.27
2018-03-06T07:50:06.370Z,97470.37
2018-03-06T07:52:34.263Z,97459.48
2018-03-06T07:55:01.843Z,97463.13
2018-03-06T07:57:29.463Z,97450.81
2018-03-06T07:59:57.082Z,97441.66
2018-03-06T08:02:24.721Z,97452.79
2018-03-06T08:04:52.282Z,97456.31
2018-03-06T08:07:19.996Z,97464.27
2018-03-06T08:09:47.557Z,97465.14
2018-03-06T08:12:15.121Z,97462.48
2018-03-06T08:14:42.778Z,97458.74
2018-03-06T08:17:10.347Z,97463.91
2018-03-06T08:19:37.936Z,97457.27
2018-03-06T08:22:05.540Z,97456.45
2018-03-06T08:24:33.089Z,97458.51
2018-03-06T08:27:00.746Z,97446.34
2018-03-06T08:29:28.557Z,97448.70
2018-03-06T08:31:56.109Z,97437.98
2018-03-06T08:34:23.668Z,97437.43
2018-03-06T08:36:51.484Z,97442.13
2018-03-06T08:39:19.053Z,97435.00
2018-03-06T08:41:46.618Z,97443.05
2018-03-06T08:44:14.226Z,97445.61
2018-03-06T08:46:41.846Z,97442.46
2018-03-06T08:49:09.416Z,97446.77
2018-03-06T08:51:37.252Z,97440.28
2018-03-06T08:54:04.814Z,97433.57
2018-03-06T08:56:32.410Z,97419.34
2018-03-06T08:59:00.020Z,97426.25
2018-03-06T09:01:27.604Z,97431.28
2018-03-06T09:03:55.255Z,97444.59
2018-03-06T09:06:23.090Z,97446.30
2018-03-06T09:08:50.826Z,97444.30
2018-03-06T09:11:19.454Z,97440.70
2018-03-06T09:13:47.333Z,97446.12
2018-03-06T09:16:14.946Z,97443.85
2018-03-06T09:18:42.510Z,97429.88
2018-03-06T09:21:10.172Z,97419.96
2018-03-06T09:23:38.559Z,97405.32
2018-03-06T09:26:06.133Z,97396.45
2018-03-06T09:28:33.744Z,97400.07
2018-03-06T09:31:01.310Z,97403.05
2018-03-06T09:33:28.877Z,97409.97
2018-03-06T09:35:56.518Z,97414.38
2018-03-06T09:38:24.073Z,97411.45
2018-03-06T09:40:51.741Z,97405.29
2018-03-06T09:43:19.418Z,97410.41
2018-03-06T09:45:46.990Z,97397.95
2018-03-06T09:48:14.551Z,97391.16
2018-03-06T09:50:42.167Z,97384.36
2018-03-06T09:53:09.728Z,97387.88
2018-03-06T09:55:37.298Z,97391.50
2018-03-06T09:58:05.807Z,97413.19
2018-03-06T10:00:33.356Z,97415.28
2018-03-06T10:03:00.931Z,97409.95
2018-03-06T10:05:28.549Z,97406.87
2018-03-06T10:07:56.183Z,97394.98
2018-03-06T10:10:23.785Z,97408.95
2018-03-06T10:12:51.426Z,97421.30
2018-03-06T10:15:19.044Z,97413.83
2018-03-06T10:17:46.645Z,97403.77
2018-03-06T10:20:14.321Z,97416.30
2018-03-06T10:22:41.901Z,97418.88
2018-03-06T10:25:09.530Z,97416.75
2018-03-06T10:27:37.135Z,97406.43
2018-03-06T10:30:04.748Z,97421.03
2018-03-06T10:32:32.300Z,97438.44
2018-03-06T10:35:00.114Z,97427.94
2018-03-06T10:37:27.664Z,97443.28
2018-03-06T10:39:55.208Z,97449.13
2018-03-06T10:42:22.801Z,97457.88
2018-03-06T10:44:50.368Z,97454.00
2018-03-06T10:47:17.949Z,97447.02
2018-03-06T10:49:45.577Z,97453.18
2018-03-06T10:52:13.157Z,97447.03
2018-03-06T10:54:40.711Z,97423.20
2018-03-06T10:57:08.313Z,97426.48
2018-03-06T10:59:35.942Z,97416.41
2018-03-06T11:02:04.294Z,97420.69
2018-03-06T11:04:31.897Z,97443.19
2018-03-06T11:06:59.486Z,97441.41
2018-03-06T11:09:27.057Z,97438.55
2018-03-06T11:11:54.765Z,97437.52
2018-03-06T11:14:22.376Z,97458.15
2018-03-06T11:16:50.841Z,97457.61
2018-03-06T11:19:18.443Z,97465.85
2018-03-06T11:21:46.105Z,97464.06
2018-03-06T11:24:13.698Z,97457.25
2018-03-06T11:26:42.101Z,97459.04
2018-03-06T11:29:09.731Z,97461.45
2018-03-06T11:31:37.320Z,97448.55
2018-03-06T11:34:04.927Z,97447.05
2018-03-06T11:36:32.482Z,97445.14
2018-03-06T11:39:00.130Z,97429.95
2018-03-06T11:41:28.813Z,97430.63
2018-03-06T11:43:56.390Z,97420.53
2018-03-06T11:46:23.975Z,97429.50
2018-03-06T11:48:51.666Z,97430.33
2018-03-06T11:51:19.289Z,97422.80
2018-03-06T11:53:46.844Z,97405.62
2018-03-06T11:56:14.464Z,97410.73
2018-03-06T11:58:42.023Z,97421.59
2018-03-06T12:01:09.586Z,97423.55
2018-03-06T12:03:37.173Z,97437.42
2018-03-06T12:06:04.822Z,97449.39
2018-03-06T12:08:32.394Z,97447.61
2018-03-06T12:11:00.027Z,97434.53
2018-03-06T12:13:27.648Z,97432.66
2018-03-06T12:15:55.193Z,97437.80
2018-03-06T12:18:23.154Z,97428.67
2018-03-06T12:20:50.711Z,97424.58
2018-03-06T12:23:18.346Z,97421.04
2018-03-06T12:25:45.979Z,97424.75
2018-03-06T12:28:13.554Z,97411.00
2018-03-06T12:30:41.202Z,97394.49
2018-03-06T12:33:08.879Z,97389.39
2018-03-06T12:35:36.453Z,97379.58
2018-03-06T12:38:04.027Z,97381.06
2018-03-06T12:40:31.659Z,97370.53
2018-03-06T12:42:59.282Z,97357.48
2018-03-06T12:45:26.858Z,97353.16
2018-03-06T12:47:54.481Z,97340.81
2018-03-06T12:50:22.046Z,97340.73
2018-03-06T12:52:49.618Z,97344.80
2018-03-06T12:55:17.515Z,97342.52
2018-03-06T12:57:45.150Z,97338.47
2018-03-06T13:00:12.738Z,97309.78
2018-03-06T13:02:40.340Z,97315.14
2018-03-06T13:05:07.914Z,97350.60
2018-03-06T13:07:35.539Z,97378.48
2018-03-06T13:10:03.194Z,97389.48
2018-03-06T13:12:30.757Z,97413.38
2018-03-06T13:14:58.788Z,97417.09
2018-03-06T13:17:26.485Z,97430.49
2018-03-06T13:19:54.045Z,97429.09
2018-03-06T13:22:21.605Z,97430.48
2018-03-06T13:24:50.666Z,97441.08
2018-03-06T13:27:18.894Z,97441.54
2018-03-06T13:29:46.451Z,97440.45
2018-03-06T13:32:14.288Z,97434.92
2018-03-06T13:34:42.610Z,97426.03
2018-03-06T13:37:10.172Z,97427.28
2018-03-06T13:39:37.818Z,97426.05
2018-03-06T13:42:05.394Z,97426.64
2018-03-06T13:44:33.001Z,97432.74
2018-03-06T13:47:00.676Z,97435.28
2018-03-06T13:49:28.233Z,97429.55
2018-03-06T13:51:55.792Z,97431.98
2018-03-06T13:54:23.494Z,97455.34
2018-03-06T13:56:51.069Z,97469.80
2018-03-06T13:59:18.670Z,97454.83
2018-03-06T14:01:46.360Z,97443.06
2018-03-06T14:04:13.929Z,97447.58
2018-03-06T14:06:42.242Z,97441.85
2018-03-06T14:09:09.902Z,97435.84
2018-03-06T14:11:37.470Z,97431.20
2018-03-06T14:14:05.098Z,97412.09
2018-03-06T14:16:33.551Z,97406.09
2018-03-06T14:19:01.167Z,97407.92
2018-03-06T14:21:28.794Z,97403.05
2018-03-06T14:23:56.930Z,97403.80
2018-03-06T14:26:24.585Z,97386.10
2018-03-06T14:28:52.177Z,97387.95
2018-03-06T14:31:19.795Z,97378.25
2018-03-06T14:33:47.360Z,97385.54
2018-03-06T14:36:15.102Z,97391.28
2018-03-06T14:38:42.979Z,97394.17
2018-03-06T14:41:10.604Z,97398.60
2018-03-06T14:43:38.197Z,97404.50
2018-03-06T14:46:05.868Z,97409.89
2018-03-06T14:48:33.440Z,97407.24
2018-03-06T14:51:03.860Z,97396.97
2018-03-06T14:53:31.696Z,97392.28
2018-03-06T14:55:59.292Z,97392.64
2018-03-06T14:58:26.869Z,97389.70
2018-03-06T15:00:54.488Z,97404.95
2018-03-06T15:03:22.062Z,97391.25
2018-03-06T15:05:49.631Z,97390.33
2018-03-06T15:08:17.269Z,97387.20
2018-03-06T15:10:44.841Z,97398.07
2018-03-06T15:13:12.401Z,97403.04
2018-03-06T15:15:40.616Z,97390.22
2018-03-06T15:18:08.343Z,97385.53
2018-03-06T15:20:35.925Z,97389.84
2018-03-06T15:23:03.839Z,97393.87
2018-03-06T15:25:31.453Z,97400.51
2018-03-06T15:27:59.028Z,97418.92
2018-03-06T15:30:26.635Z,97436.87
2018-03-06T15:32:55.154Z,97448.45
2018-03-06T15:35:22.746Z,97463.74
2018-03-06T15:37:50.381Z,97460.82
2018-03-06T15:40:17.926Z,97448.53
2018-03-06T15:42:45.451Z,97446.16
2018-03-06T15:45:13.037Z,97437.66
2018-03-06T15:47:40.564Z,97434.77
2018-03-06T15:50:08.932Z,97434.51
2018-03-06T15:52:36.533Z,97440.84
2018-03-06T15:55:04.075Z,97425.05
2018-03-06T15:57:31.653Z,97413.59
2018-03-06T15:59:59.453Z,97414.41
2018-03-06T16:02:26.991Z,97404.55
2018-03-06T16:04:54.531Z,97401.54
2018-03-06T16:07:22.120Z,97416.94
2018-03-06T16:09:49.659Z,97405.66
2018-03-06T16:12:17.188Z,97407.64
2018-03-06T16:14:44.791Z,97402.58
2018-03-06T16:17:12.320Z,97400.87
2018-03-06T16:19:40.126Z,97411.46
2018-03-06T16:22:07.789Z,97417.99
2018-03-06T16:24:35.333Z,97397.84
2018-03-06T16:27:02.903Z,97392.77
2018-03-06T16:29:30.979Z,97385.86
2018-03-06T16:31:58.511Z,97390.40
2018-03-06T16:34:26.121Z,97387.38
2018-03-06T16:36:53.786Z,97398.29
2018-03-06T16:39:21.423Z,97400.92
2018-03-06T16:41:48.960Z,97403.19
2018-03-06T16:44:16.860Z,97398.83
2018-03-06T16:46:44.389Z,97413.09
2018-03-06T16:49:11.925Z,97420.82
2018-03-06T16:51:39.513Z,97421.47
2018-03-06T16:54:07.644Z,97416.21
2018-03-06T16:56:35.182Z,97413.16
2018-03-06T16:59:02.781Z,97416.05
2018-03-06T17:01:30.329Z,97419.99
2018-03-06T17:03:57.867Z,97420.27
2018-03-06T17:06:25.536Z,97421.94
2018-03-06T17:08:53.077Z,97421.34
2018-03-06T17:11:20.613Z,97418.86
2018-03-06T17:13:49.099Z,97419.39
2018-03-06T17:16:17.274Z,97431.91
2018-03-06T17:18:44.824Z,97439.42
2018-03-06T17:21:12.557Z,97445.00
2018-03-06T17:23:40.096Z,97459.25
2018-03-06T17:26:07.632Z,97463.83
2018-03-06T17:28:35.215Z,97446.64
2018-03-06T17:31:02.866Z,97455.44
2018-03-06T17:33:30.402Z,97462.91
2018-03-06T17:35:58.000Z,97469.70
2018-03-06T17:38:25.554Z,97471.09
2018-03-06T17:40:53.264Z,97460.22
2018-03-06T17:43:20.868Z,97466.77
2018-03-06T17:45:49.160Z,97469.00
2018-03-06T17:48:16.710Z,97464.23
2018-03-06T17:50:44.317Z,97463.95
2018-03-06T17:53:11.880Z,97465.98
2018-03-06T17:55:39.463Z,97452.52
2018-03-06T17:58:07.051Z,97461.94
2018-03-06T18:00:34.614Z,97458.27
2018-03-06T18:03:02.194Z,97445.81
2018-03-06T18:05:29.797Z,97444.53
2018-03-06T18:07:57.444Z,97447.70
2018-03-06T18:10:25.019Z,97449.91
2018-03-06T18:12:52.617Z,97461.48
2018-03-06T18:15:20.191Z,97474.44
2018-03-06T18:17:47.750Z,97474.95
2018-03-06T18:20:15.344Z,97462.98
2018-03-06T18:22:43.417Z,97451.42
2018-03-06T18:25:10.952Z,97440.98
2018-03-06T18:27:38.829Z,97443.07
2018-03-06T18:30:06.433Z,97438.73
2018-03-06T18:32:33.961Z,97447.97
2018-03-06T18:35:01.605Z,97448.98
2018-03-06T18:37:29.168Z,97448.66
2018-03-06T18:39:56.744Z,97441.16
2018-03-06T18:42:24.352Z,97436.33
2018-03-06T18:44:51.914Z,97417.22
2018-03-06T18:47:19.441Z,97433.96
2018-03-06T18:49:53.798Z,97425.25
2018-03-06T18:52:21.339Z,97427.30
2018-03-06T18:54:48.900Z,97430.05
2018-03-06T18:57:16.484Z,97427.91
2018-03-06T18:59:44.070Z,97415.72
2018-03-06T19:02:23.764Z,97416.23
2018-03-06T19:05:02.954Z,97418.20
2018-03-06T19:07:30.553Z,97425.45
2018-03-06T19:09:58.079Z,97420.95
2018-03-06T19:12:25.629Z,97436.44
2018-03-06T19:14:53.231Z,97446.89
2018-03-06T19:17:20.847Z,97436.83
2018-03-06T19:19:48.438Z,97433.16
2018-03-06T19:22:15.999Z,97433.70
2018-03-06T19:24:43.735Z,97432.89
2018-03-06T19:27:11.342Z,97434.27
2018-03-06T19:29:38.939Z,97432.86
2018-03-06T19:32:06.557Z,97427.45
2018-03-06T19:34:34.114Z,97430.05
2018-03-06T19:37:01.965Z,97443.45
2018-03-06T19:39:29.528Z,97440.59
2018-03-06T19:41:57.108Z,97435.97
2018-03-06T19:44:24.752Z,97437.03
2018-03-06T19:46:52.329Z,97430.50
2018-03-06T19:49:20.657Z,97430.23
2018-03-06T19:51:48.412Z,97429.16
2018-03-06T19:54:15.990Z,97431.66
2018-03-06T19:56:43.587Z,97419.52
2018-03-06T19:59:11.284Z,97412.30
2018-03-06T20:01:38.898Z,97416.56
2018-03-06T20:04:06.464Z,97420.38
2018-03-06T20:06:34.083Z,97415.22
2018-03-06T20:09:01.674Z,97416.08
2018-03-06T20:11:29.254Z,97421.09
2018-03-06T20:13:57.184Z,97406.20
2018-03-06T20:16:24.790Z,97396.95
2018-03-06T20:18:57.930Z,97399.48
2018-03-06T20:21:25.608Z,97399.22
2018-03-06T20:23:53.188Z,97388.50
2018-03-06T20:26:20.881Z,97377.05
2018-03-06T20:28:48.457Z,97371.91
2018-03-06T20:31:21.704Z,97375.55
2018-03-06T20:33:49.333Z,97379.73
2018-03-06T20:36:16.920Z,97356.28
2018-03-06T20:38:50.050Z,97367.41
2018-03-06T20:41:17.623Z,97360.19
2018-03-06T20:43:45.214Z,97330.53
2018-03-06T20:46:18.310Z,97326.86
2018-03-06T20:48:45.873Z,97319.49
2018-03-06T20:51:13.511Z,97309.29
2018-03-06T20:53:46.993Z,97305.95
2018-03-06T20:56:14.560Z,97311.70
2018-03-06T20:58:42.124Z,97327.91
2018-03-06T21:01:09.737Z,97328.27
2018-03-06T21:03:37.314Z,97314.22
2018-03-06T21:06:04.922Z,97321.58
2018-03-06T21:08:32.572Z,97322.98
2018-03-06T21:11:00.145Z,97328.08
2018-03-06T21:13:27.743Z,97319.67
2018-03-06T21:15:55.414Z,97327.13
2018-03-06T21:18:23.048Z,97323.03
2018-03-06T21:20:50.627Z,97305.38
2018-03-06T21:23:18.468Z,97298.61
2018-03-06T21:25:46.051Z,97287.81
2018-03-06T21:28:13.954Z,97293.86
2018-03-06T21:30:41.786Z,97297.09
2018-03-06T21:33:09.355Z,97289.47
2018-03-06T21:35:36.917Z,97290.56
2018-03-06T21:38:04.535Z,97276.50
2018-03-06T21:40:33.123Z,97283.60
2018-03-06T21:43:00.692Z,97290.66
2018-03-06T21:45:28.296Z,97288.14
2018-03-06T21:47:55.899Z,97286.72
2018-03-06T21:50:23.487Z,97295.48
2018-03-06T21:52:51.095Z,97295.45
2018-03-06T21:55:18.916Z,97277.81
2018-03-06T21:57:46.475Z,97274.30
2018-03-06T22:00:14.106Z,97275.05
2018-03-06T22:02:41.669Z,97267.84
2018-03-06T22:05:09.325Z,97276.46
2018-03-06T22:07:37.221Z,97283.03
2018-03-06T22:10:04.792Z,97281.06
2018-03-06T22:12:32.371Z,97265.16
2018-03-06T22:14:59.983Z,97272.05
2018-03-06T22:17:27.615Z,97282.03
2018-03-06T22:19:55.197Z,97284.41
2018-03-06T22:22:22.921Z,97264.74
2018-03-06T22:24:50.494Z,97269.55
2018-03-06T22:27:18.381Z,97259.45
2018-03-06T22:29:46.529Z,97263.98
2018-03-06T22:32:14.142Z,97273.61
2018-03-06T22:34:41.740Z,97271.86
2018-03-06T22:37:09.362Z,97268.88
2018-03-06T22:39:36.928Z,97270.55
2018-03-06T22:42:04.500Z,97262.41
2018-03-06T22:44:32.371Z,97266.88
2018-03-06T22:46:59.943Z,97281.18
2018-03-06T22:49:27.496Z,97277.91
2018-03-06T22:51:55.164Z,97274.92
2018-03-06T22:54:22.728Z,97263.13
2018-03-06T22:56:50.288Z,97255.02
2018-03-06T22:59:18.802Z,97247.02
2018-03-06T23:01:46.379Z,97245.61
2018-03-06T23:04:13.942Z,97241.84
2018-03-06T23:06:41.661Z,97236.72
2018-03-06T23:09:09.220Z,97236.33
2018-03-06T23:11:36.781Z,97234.65
2018-03-06T23:14:04.526Z,97237.20
2018-03-06T23:16:32.084Z,97230.15
2018-03-06T23:18:59.722Z,97219.66
2018-03-06T23:21:27.667Z,97219.12
2018-03-06T23:23:55.244Z,97211.61
2018-03-06T23:26:22.906Z,97219.45
2018-03-06T23:28:50.554Z,97206.51
2018-03-06T23:31:18.211Z,97197.11
2018-03-06T23:33:45.779Z,97191.73
2018-03-06T23:36:13.752Z,97212.55
2018-03-06T23:38:41.338Z,97203.50
2018-03-06T23:41:08.911Z,97204.08
2018-03-06T23:43:36.528Z,97196.08
2018-03-06T23:46:04.153Z,97203.60
2018-03-06T23:48:31.724Z,97188.77
2018-03-06T23:50:59.397Z,97204.19
2018-03-06T23:53:27.031Z,97189.42
2018-03-06T23:55:54.594Z,97184.53
2018-03-06T23:58:22.275Z,97197.08
